Flight Track Log - Related Links

Times and Time Zones

All times are in EDT time to prevent confusion due to time zone crossing. See the CSN6455 flight status page for this flight to view local times or setup timezone preferences in your user account.


Time Position Orientation Groundspeed Altitude Reporting Facility
EDT Latitude Longitude Course Direction KTS MPH feet Rate Location/Type
Sat 08:02:00 PM 41.6363 123.3169 268° West  Level Estimated
Sat 08:03:00 PM 41.6324 123.1505 268° West  Level Estimated
Sat 08:04:00 PM 41.6284 122.9840 268° West  Level Estimated
Sat 08:05:00 PM 41.6241 122.8176 268° West  Level Estimated
Sat 08:06:00 PM 41.6195 122.6512 268° West  Level Estimated
Sat 08:07:00 PM 41.6148 122.4848 268° West  Level Estimated
Sat 08:08:00 PM 41.6097 122.3185 268° West  Level Estimated
Sat 08:09:00 PM 41.6045 122.1521 268° West  Level Estimated
Sat 08:10:00 PM 41.5990 121.9858 268° West  Level Estimated
Sat 08:11:00 PM 41.5932 121.8196 267° West  Level Estimated
Sat 08:12:00 PM 41.5873 121.6533 267° West  Level Estimated
Sat 08:13:00 PM 41.5810 121.4871 267° West  Level Estimated
Sat 08:14:00 PM 41.5746 121.3209 267° West  Level Estimated
Sat 08:15:00 PM 41.5679 121.1548 267° West  Level Estimated
Sat 08:16:00 PM 41.5609 120.9887 267° West  Level Estimated
Sat 08:17:00 PM 41.5538 120.8226 267° West  Level Estimated
Sat 08:18:00 PM 41.5464 120.6566 267° West  Level Estimated
Sat 08:19:00 PM 41.5387 120.4906 267° West  Level Estimated
Sat 08:20:00 PM 41.5308 120.3246 266° West  Level Estimated
Sat 08:21:00 PM 41.5227 120.1587 266° West  Level Estimated
Sat 08:22:00 PM 41.5143 119.9928 266° West  Level Estimated
Sat 08:23:00 PM 41.5057 119.8270 266° West  Level Estimated
Sat 08:24:00 PM 41.4969 119.6612 266° West  Level Estimated
Sat 08:25:00 PM 41.4878 119.4955 266° West  Level Estimated
Sat 08:26:00 PM 41.4785 119.3298 266° West  Level Estimated
Sat 08:27:00 PM 41.4689 119.1642 266° West  Level Estimated
Sat 08:28:00 PM 41.4591 118.9986 266° West  Level Estimated
Sat 08:29:00 PM 41.4491 118.8330 265° West  Level Estimated
Sat 08:30:00 PM 41.4388 118.6675 265° West  Level Estimated
Sat 08:31:00 PM 41.4283 118.5021 265° West  Level Estimated
Sat 08:32:00 PM 41.4176 118.3367 265° West  Level Estimated
Sat 08:33:00 PM 41.4066 118.1714 265° West  Level Estimated
Sat 08:34:00 PM 41.3954 118.0061 265° West  Level Estimated
Sat 08:35:00 PM 41.3839 117.8409 265° West  Level Estimated
Sat 08:36:00 PM 41.3722 117.6758 265° West  Level Estimated
Sat 08:37:00 PM 41.3603 117.5107 265° West  Level Estimated
Sat 08:38:00 PM 41.3481 117.3456 264° West  Level Estimated
Sat 08:39:00 PM 41.3357 117.1806 264° West  Level Estimated
Sat 08:40:00 PM 41.3231 117.0157 264° West  Level Estimated
Sat 08:41:00 PM 41.3102 116.8509 264° West  Level Estimated
Sat 08:42:00 PM 41.2971 116.6861 264° West  Level Estimated
Sat 08:43:00 PM 41.2838 116.5214 264° West  Level Estimated
Sat 08:44:00 PM 41.2702 116.3568 264° West  Level Estimated
Sat 08:45:00 PM 41.2564 116.1922 264° West  Level Estimated
Sat 08:46:00 PM 41.2424 116.0277 264° West  Level Estimated
Sat 08:47:00 PM 41.2281 115.8633 263° West  Level Estimated
Sat 08:48:00 PM 41.2136 115.6989 263° West  Level Estimated
Sat 08:49:00 PM 41.1989 115.5346 263° West  Level Estimated
Sat 08:50:00 PM 41.1839 115.3704 263° West  Level Estimated
Sat 08:51:00 PM 41.1687 115.2063 263° West  Level Estimated
Sat 08:52:00 PM 41.1532 115.0422 263° West  Level Estimated
Sat 08:53:00 PM 41.1376 114.8782 263° West  Level Estimated
Sat 08:54:00 PM 41.1217 114.7143 263° West  Level Estimated
Sat 08:55:00 PM 41.1055 114.5505 263° West  Level Estimated
Sat 08:56:00 PM 41.0891 114.3867 262° West  Level Estimated
Sat 08:57:00 PM 41.0725 114.2231 262° West  Level Estimated
Sat 08:58:00 PM 41.0583 114.0848 262° West  Level Estimated
Sat 08:59:00 PM 41.0439 113.9466 262° West  Level Estimated
Sat 09:00:00 PM 41.0294 113.8084 262° West  Level Estimated
Sat 09:01:00 PM 41.0147 113.6703 262° West  Level Estimated
Sat 09:02:00 PM 40.9998 113.5322 262° West  Level Estimated
Sat 09:03:00 PM 40.9848 113.3943 262° West  Level Estimated
Sat 09:04:00 PM 40.9696 113.2563 262° West  Level Estimated
Sat 09:05:00 PM 40.9542 113.1185 262° West  Level Estimated
Sat 09:06:00 PM 40.9387 112.9807 262° West  Level Estimated
Sat 09:07:00 PM 40.9230 112.8430 261° West  Level Estimated
Sat 09:08:00 PM 40.9071 112.7053 261° West  Level Estimated
Sat 09:09:00 PM 40.8911 112.5677 261° West  Level Estimated
Sat 09:10:00 PM 40.8749 112.4302 261° West  Level Estimated
Sat 09:11:00 PM 40.8585 112.2927 261° West  Level Estimated
Sat 09:12:00 PM 40.8420 112.1554 261° West  Level Estimated
Sat 09:13:00 PM 40.8254 112.0180 261° West  Level Estimated
Sat 09:14:00 PM 40.8085 111.8808 261° West  Level Estimated
Sat 09:15:00 PM 40.7915 111.7436 261° West  Level Estimated
Sat 09:16:00 PM 40.7743 111.6065 261° West  Level Estimated
Sat 09:17:00 PM 40.7570 111.4695 261° West  Level Estimated
Sat 09:18:00 PM 40.7395 111.3325 260° West  Level Estimated
Sat 09:19:00 PM 40.7219 111.1956 260° West  Level Estimated
Sat 09:20:00 PM 40.7041 111.0588 260° West  Level Estimated
Sat 09:21:00 PM 40.6861 110.9220 260° West  Level Estimated
Sat 09:22:00 PM 40.6680 110.7853 260° West  Level Estimated
Sat 09:23:00 PM 40.6497 110.6488 260° West  Level Estimated
Sat 09:24:00 PM 40.6312 110.5122 260° West  Level Estimated
Sat 09:25:00 PM 40.6126 110.3758 260° West  Level Estimated
Sat 09:26:00 PM 40.5938 110.2394 260° West  Level Estimated
Sat 09:27:00 PM 40.5749 110.1031 260° West  Level Estimated
Sat 09:28:00 PM 40.5600 109.9969 260° West  Level Estimated
Sat 09:29:00 PM 40.5600 109.9969 108° East  Level Estimated
Sat 09:30:00 PM 40.5600 109.9969 108° East  Level Estimated
Sat 09:31:00 PM 40.5600 109.9969 108° East  Level Estimated
Sat 09:32:00 PM 40.5600 109.9969 108° East  Level Estimated
Sat 09:33:00 PM 40.5600 109.9969 108° East  Level Estimated
Sat 09:34:00 PM 40.5600 109.9969 108° East  Level Estimated
Sat 09:35:00 PM 40.5600 109.9969 108° East  Level Estimated
Sat 09:36:00 PM 40.5600 109.9969 108° East  Level Estimated
Sat 09:37:00 PM 40.5600 109.9969 108° East  Level Estimated

Login

Don't have an account? Register now (free) for customized features, flight alerts, and more!